Terminal Aerodrome Forecast
Issued by NWS

Home | Current Version | Previous Version | Text Only | Print | Product List | Glossary On
Versions: 1 2 3 4 5 6 7 8 9 10 11 12 13 14
000
FTUS46 KMTR 042300
TAFSTS
TAF
KSTS 042324Z 0500/0524 20007KT P6SM SKC
     FM050300 VRB03KT P6SM SKC
     FM051000 00000KT 3SM BR SKC
     FM051700 VRB03KT P6SM SKC
     FM052100 14004KT P6SM SKC=

USA.gov is the U.S. government's official web portal to all federal, state and local government web resources and services.